Time;durP1;ratioP1;P1;durP2;ratioP2;P2;SDS_P1;SDS_P2;PMS_P1;PMS_P2;Temp;Humidity;BMP_temperature;BMP_pressure;BME280_temperature;BME280_humidity;BME280_pressure;Samples;Min_cycle;Max_cycle;Signal;HPM_P1;HPM_P2
2022/07/31 00:00:29;;;;;;;11.73;7.25;;;22.50;99.90;;;22.85;64.71;101638.09;5054848;28;20043;-62
2022/07/31 00:02:58;;;;;;;11.82;7.22;;;22.40;99.90;;;22.86;64.87;101639.88;5053140;28;20499;-62
2022/07/31 00:05:27;;;;;;;12.73;7.20;;;22.40;99.90;;;22.90;65.32;101641.50;5053129;28;20098;-63
2022/07/31 00:07:57;;;;;;;11.95;7.65;;;22.40;99.90;;;22.90;65.74;101663.09;5054500;28;20099;-62
2022/07/31 00:10:25;;;;;;;12.27;8.25;;;22.40;99.90;;;22.87;66.27;101626.31;5054495;28;20058;-62
2022/07/31 00:12:54;;;;;;;12.35;8.07;;;22.40;99.90;;;22.86;66.28;101623.69;5054030;28;20041;-62
2022/07/31 00:15:22;;;;;;;10.35;7.22;;;22.40;99.90;;;22.86;66.90;101626.38;5053995;28;20049;-62
2022/07/31 00:17:51;;;;;;;10.60;7.45;;;22.30;99.90;;;22.72;66.85;101599.09;5054187;28;20043;-63
2022/07/31 00:20:20;;;;;;;11.23;6.88;;;22.40;99.90;;;22.90;67.33;101623.47;5053895;28;20049;-62
2022/07/31 00:22:49;;;;;;;9.32;6.68;;;22.40;99.90;;;23.01;67.48;101633.81;5054144;28;20068;-62
2022/07/31 00:25:19;;;;;;;14.25;7.47;;;22.50;99.90;;;22.98;67.27;101634.81;5054169;28;20136;-63
2022/07/31 00:27:47;;;;;;;10.07;7.05;;;22.50;99.90;;;22.91;67.77;101625.25;5053840;28;20461;-62
2022/07/31 00:30:16;;;;;;;13.07;7.63;;;22.50;99.90;;;22.83;67.74;101605.78;5069683;28;20052;-63
2022/07/31 00:32:45;;;;;;;8.93;6.75;;;22.50;99.90;;;22.97;68.16;101626.78;5054013;28;20056;-62
2022/07/31 00:35:16;;;;;;;12.18;6.95;;;22.50;99.90;;;22.97;68.42;101633.06;5053732;28;20060;-62
2022/07/31 00:37:44;;;;;;;11.27;6.90;;;22.50;99.90;;;22.80;68.24;101580.78;5052420;28;20079;-63
2022/07/31 00:40:16;;;;;;;8.82;6.80;;;22.50;99.90;;;23.12;68.75;101623.41;5053862;28;20098;-63
2022/07/31 00:42:45;;;;;;;11.10;7.65;;;22.60;99.90;;;23.15;69.00;101626.00;5053541;28;20104;-63
2022/07/31 00:45:14;;;;;;;9.57;6.40;;;22.60;99.90;;;23.15;69.67;101631.41;5053389;28;20045;-63
2022/07/31 00:47:43;;;;;;;7.63;5.97;;;22.70;99.90;;;23.04;69.42;101603.97;5052519;28;20036;-62
2022/07/31 00:50:12;;;;;;;9.40;6.10;;;22.60;99.90;;;22.74;69.64;101545.97;5052466;28;20140;-63
2022/07/31 00:52:42;;;;;;;9.05;5.95;;;22.70;99.90;;;22.88;70.00;101557.03;5053745;28;20045;-63
2022/07/31 00:55:12;;;;;;;7.85;5.65;;;22.70;99.90;;;23.01;70.21;101571.72;5053427;28;20062;-63
2022/07/31 00:57:42;;;;;;;9.98;6.88;;;22.70;99.90;;;23.19;70.55;101596.06;5069066;28;20079;-63
2022/07/31 01:00:14;;;;;;;9.88;6.20;;;22.70;99.90;;;23.18;70.91;101605.13;5052290;28;20047;-62
2022/07/31 01:02:46;;;;;;;10.07;5.85;;;22.70;99.90;;;23.16;70.67;101606.13;5053740;28;20083;-63
2022/07/31 01:05:17;;;;;;;7.10;5.88;;;22.70;99.90;;;23.12;70.95;101594.59;5052076;28;20041;-63
2022/07/31 01:07:47;;;;;;;9.80;5.68;;;22.70;99.90;;;23.13;71.20;101601.75;5052139;28;20129;-62
2022/07/31 01:10:38;;;;;;;8.00;6.13;;;22.60;99.90;;;23.10;71.42;101592.91;5053557;28;20478;-63
2022/07/31 01:13:15;;;;;;;13.85;6.55;;;22.60;99.90;;;23.12;71.54;101608.09;5053534;28;20120;-63
2022/07/31 01:15:45;;;;;;;6.13;4.95;;;22.60;99.90;;;23.06;71.72;101596.69;5053663;28;20128;-63
2022/07/31 01:18:15;;;;;;;7.78;5.53;;;22.60;99.90;;;23.11;72.03;101595.53;5068805;28;20055;-63
2022/07/31 01:20:46;;;;;;;7.85;5.50;;;22.60;99.90;;;23.04;72.26;101585.06;5052198;28;20059;-63
2022/07/31 01:23:50;;;;;;;7.03;5.40;;;22.60;99.90;;;23.08;72.47;101622.66;5053013;28;20414;-63
2022/07/31 01:26:57;;;;;;;8.85;5.63;;;22.60;99.90;;;23.13;72.54;101601.75;5053174;28;20037;-63
2022/07/31 01:29:31;;;;;;;11.40;6.03;;;22.60;99.90;;;23.12;72.90;101599.13;5052277;28;20079;-63
2022/07/31 01:32:06;;;;;;;8.45;6.22;;;22.70;99.90;;;23.15;72.85;101594.44;5068692;28;20041;-62
2022/07/31 01:34:42;;;;;;;8.57;5.68;;;22.70;99.90;;;23.12;72.89;101586.50;5051990;28;20053;-63
2022/07/31 01:37:19;;;;;;;9.00;5.35;;;22.70;99.90;;;23.19;72.64;101590.66;5068586;28;20076;-63
2022/07/31 01:39:56;;;;;;;9.68;5.32;;;22.70;99.90;;;23.07;72.58;101587.66;5052066;28;20489;-63
2022/07/31 01:42:25;;;;;;;6.78;5.40;;;22.70;99.90;;;22.57;72.61;101494.56;5085371;28;20442;-63
2022/07/31 01:45:00;;;;;;;10.55;5.18;;;22.70;99.90;;;23.17;72.55;101580.91;5068514;28;20049;-63
2022/07/31 01:47:31;;;;;;;8.13;5.20;;;22.70;99.90;;;23.20;72.73;101588.84;5068590;28;20107;-62
2022/07/31 01:50:03;;;;;;;7.63;4.50;;;22.70;99.90;;;23.19;72.90;101573.59;5052212;28;20051;-63
2022/07/31 01:52:33;;;;;;;10.88;5.68;;;22.70;99.90;;;23.17;73.00;101578.22;5055873;28;20041;-62
2022/07/31 01:55:05;;;;;;;6.90;5.05;;;22.70;99.90;;;23.20;72.79;101583.47;5089490;28;20067;-62
2022/07/31 01:57:35;;;;;;;9.88;5.60;;;22.70;99.90;;;23.18;72.88;101571.84;5055850;28;20053;-63
2022/07/31 02:00:10;;;;;;;8.20;5.00;;;22.70;99.90;;;23.12;73.32;101564.91;5055734;28;20036;-63
2022/07/31 02:02:59;;;;;;;9.48;5.35;;;22.60;99.90;;;22.99;73.12;101558.31;5056496;28;20498;-63
2022/07/31 02:05:41;;;;;;;10.07;5.32;;;22.60;99.90;;;23.02;73.08;101558.16;5088899;28;20379;-63
2022/07/31 02:08:11;;;;;;;10.38;6.25;;;22.60;99.90;;;23.06;73.33;101567.00;5055704;28;20049;-62
2022/07/31 02:10:45;;;;;;;9.70;6.25;;;22.60;99.90;;;23.04;73.28;101564.38;5055469;28;20165;-63
2022/07/31 02:13:16;;;;;;;10.63;7.13;;;22.50;99.90;;;23.01;73.50;101551.03;5055438;28;20486;-63
2022/07/31 02:15:47;;;;;;;9.70;5.68;;;22.50;99.90;;;22.97;73.63;101545.81;5055385;28;20051;-63
2022/07/31 02:18:20;;;;;;;7.97;5.55;;;22.50;99.90;;;22.99;73.59;101552.91;5055425;28;20402;-63
2022/07/31 02:21:07;;;;;;;8.40;5.45;;;22.50;99.90;;;21.88;73.76;101361.88;5056317;28;20133;-62
2022/07/31 02:23:37;;;;;;;9.70;5.97;;;22.50;99.90;;;22.94;73.98;101554.03;5056773;28;20048;-63
2022/07/31 02:26:07;;;;;;;8.87;5.77;;;22.40;99.90;;;22.84;73.83;101533.81;5055187;28;20516;-63
2022/07/31 02:28:41;;;;;;;8.70;5.90;;;22.40;99.90;;;22.85;73.84;101540.97;5088758;28;20052;-63
2022/07/31 02:31:13;;;;;;;10.95;6.10;;;22.50;99.90;;;22.91;73.92;101555.06;5056888;28;20040;-62
2022/07/31 02:33:46;;;;;;;9.10;5.82;;;22.40;99.90;;;22.30;73.68;101446.25;5054812;28;20040;-62
2022/07/31 02:36:19;;;;;;;7.82;6.18;;;22.40;99.90;;;22.96;73.60;101555.72;5055052;28;20052;-63
2022/07/31 02:38:49;;;;;;;8.90;6.43;;;22.40;99.90;;;22.79;73.48;101519.66;5054981;28;20061;-63
2022/07/31 02:41:19;;;;;;;7.60;5.97;;;22.50;99.90;;;22.83;73.49;101530.25;5056206;28;20044;-63
2022/07/31 02:43:51;;;;;;;10.57;5.65;;;22.40;99.90;;;22.82;73.19;101527.63;5056142;28;20090;-63
2022/07/31 02:46:23;;;;;;;12.88;6.22;;;22.40;99.90;;;22.95;73.38;101555.81;5088349;28;20095;-63
2022/07/31 02:48:52;;;;;;;9.90;6.10;;;22.40;99.90;;;22.95;73.05;101553.09;5054820;28;20403;-62
2022/07/31 02:51:23;;;;;;;9.55;6.50;;;22.40;99.90;;;22.90;72.88;101538.97;5054758;28;20415;-62
2022/07/31 02:53:53;;;;;;;9.35;6.57;;;22.40;99.90;;;22.76;72.91;101525.19;5054740;28;20494;-63
2022/07/31 02:56:25;;;;;;;9.50;6.47;;;22.40;99.90;;;22.86;72.74;101554.38;5071454;28;20055;-63
2022/07/31 02:58:54;;;;;;;9.13;6.65;;;22.40;99.90;;;22.81;72.64;101528.53;5054594;28;20132;-63
2022/07/31 03:01:29;;;;;;;8.18;6.15;;;22.40;99.90;;;22.78;73.01;101528.69;5054040;28;20067;-63
2022/07/31 03:03:58;;;;;;;;;;;22.30;99.90;;;22.74;73.19;101535.16;5071053;28;20048;-64
2022/07/31 03:06:28;;;;;;;7.75;6.88;;;22.30;99.90;;;22.44;73.08;101475.31;5071649;28;20325;-63
2022/07/31 03:08:57;;;;;;;10.95;7.10;;;22.30;99.90;;;22.11;73.06;101439.91;5054387;28;20497;-63
2022/07/31 03:11:28;;;;;;;8.90;7.50;;;22.20;99.90;;;22.74;72.75;101536.06;5054253;28;20098;-63
2022/07/31 03:14:00;;;;;;;7.53;6.78;;;22.20;99.90;;;22.58;72.85;101509.81;5054235;28;20119;-63
2022/07/31 03:16:32;;;;;;;9.65;7.18;;;22.20;99.90;;;22.78;72.73;101542.19;5054256;28;20044;-63
2022/07/31 03:19:04;;;;;;;7.28;6.57;;;22.20;99.90;;;22.84;72.67;101536.53;5054277;28;20074;-63
2022/07/31 03:21:32;;;;;;;10.07;7.55;;;22.30;99.90;;;22.81;72.75;101534.81;5054383;28;20161;-63
2022/07/31 03:24:04;;;;;;;8.20;7.18;;;22.30;99.90;;;22.78;72.75;101537.69;5054113;28;20049;-63
2022/07/31 03:26:34;;;;;;;8.38;7.53;;;22.30;99.90;;;22.71;72.96;101521.81;5054211;28;20490;-63
2022/07/31 03:29:02;;;;;;;12.73;8.23;;;22.30;99.90;;;22.74;72.99;101533.38;5054012;28;20037;-63
2022/07/31 03:31:32;;;;;;;9.63;8.63;;;22.20;99.90;;;22.74;73.29;101533.38;5054132;28;20071;-63
2022/07/31 03:34:01;;;;;;;13.10;7.85;;;22.20;99.90;;;22.73;73.36;101534.28;5055029;28;20441;-63
2022/07/31 03:36:30;;;;;;;11.75;8.85;;;22.20;99.90;;;22.59;73.73;101509.72;5053793;28;20110;-63
2022/07/31 03:38:59;;;;;;;11.48;8.70;;;22.20;99.90;;;22.71;73.88;101555.06;5053806;28;20517;-63
2022/07/31 03:41:35;;;;;;;13.23;8.65;;;22.20;99.90;;;22.69;74.08;101523.69;5053878;28;20510;-64
2022/07/31 03:44:06;;;;;;;13.07;8.90;;;22.20;99.90;;;22.70;73.99;101533.56;5053729;28;20103;-63
2022/07/31 03:46:36;;;;;;;13.93;8.88;;;22.20;99.90;;;22.64;74.22;101528.41;5070308;28;20068;-63
2022/07/31 03:49:05;;;;;;;12.20;9.37;;;22.10;99.90;;;22.56;74.65;101500.88;5053289;28;20052;-64
2022/07/31 03:51:34;;;;;;;13.77;9.53;;;22.10;99.90;;;22.49;74.66;101497.56;5053718;28;20326;-64
2022/07/31 03:54:03;;;;;;;12.80;9.40;;;22.10;99.90;;;22.55;74.97;101515.31;5053436;28;20653;-64
2022/07/31 03:56:49;;;;;;;12.13;9.60;;;22.10;99.90;;;22.63;75.30;101523.97;5054776;28;20107;-64
2022/07/31 03:59:19;;;;;;;14.68;10.68;;;22.10;99.90;;;22.59;75.54;101515.13;5053501;28;20103;-64
2022/07/31 04:01:50;;;;;;;20.45;11.43;;;22.10;99.90;;;22.61;75.90;101518.63;5054283;28;20104;-63
2022/07/31 04:04:44;;;;;;;19.10;11.63;;;22.10;99.90;;;22.57;75.99;101516.16;5053373;28;20067;-64
2022/07/31 04:07:12;;;;;;;17.02;11.85;;;22.10;99.90;;;22.57;76.42;101510.75;5053184;28;20505;-64
2022/07/31 04:09:41;;;;;;;17.48;12.00;;;22.10;99.90;;;22.58;76.59;101512.50;5053487;28;20048;-64
2022/07/31 04:12:11;;;;;;;20.10;12.73;;;22.10;99.90;;;22.41;76.82;101484.41;5069738;28;20053;-64
2022/07/31 04:14:40;;;;;;;18.55;12.68;;;22.10;99.90;;;22.51;76.99;101497.50;5053725;28;20041;-64
2022/07/31 04:17:10;;;;;;;18.52;12.93;;;22.10;99.90;;;20.81;77.30;101201.34;5054628;28;20076;-64
2022/07/31 04:19:38;;;;;;;21.88;12.90;;;22.10;99.90;;;22.44;77.58;101492.38;5052890;28;20056;-64
2022/07/31 04:22:07;;;;;;;17.27;12.65;;;22.10;99.90;;;22.36;77.96;101482.84;5069623;28;20395;-64
2022/07/31 04:24:37;;;;;;;;;;;22.00;99.90;;;22.42;78.19;101486.16;5069752;28;20083;-64
2022/07/31 04:27:24;;;;;;;19.33;13.75;;;22.10;99.90;;;22.54;78.22;101497.34;5054107;28;20010;-64
2022/07/31 04:29:53;;;;;;;22.27;14.52;;;22.10;99.90;;;22.45;78.71;101490.56;5052823;28;20509;-64
2022/07/31 04:32:24;;;;;;;21.13;15.00;;;22.10;99.90;;;22.43;78.73;101485.22;5069372;28;20080;-64
2022/07/31 04:35:02;;;;;;;22.05;13.68;;;22.00;99.90;;;22.48;78.88;101490.41;5052508;28;20299;-63
2022/07/31 04:37:32;;;;;;;25.40;14.40;;;22.00;99.90;;;21.94;78.88;101393.06;5053970;28;20045;-64
2022/07/31 04:40:00;;;;;;;22.60;13.70;;;22.10;99.90;;;22.61;78.97;101504.28;5052860;28;20053;-63
2022/07/31 04:42:30;;;;;;;24.67;13.88;;;22.10;99.90;;;22.57;79.26;101498.13;5052584;28;20049;-63
2022/07/31 04:45:00;;;;;;;26.85;14.88;;;22.10;99.90;;;22.60;79.25;101489.03;5052577;28;20060;-63
2022/07/31 04:47:30;;;;;;;22.02;13.85;;;22.10;99.90;;;22.57;79.53;101494.56;5052461;28;20114;-63
2022/07/31 04:49:58;;;;;;;22.75;13.43;;;22.10;99.90;;;22.47;80.21;101477.00;5052159;28;20056;-63
2022/07/31 04:52:27;;;;;;;21.70;13.30;;;22.10;99.90;;;22.55;80.34;101494.59;5052414;28;20045;-63
2022/07/31 04:55:01;;;;;;;20.80;13.52;;;22.00;99.90;;;22.56;80.14;101484.69;5052384;28;20045;-63
2022/07/31 04:57:30;;;;;;;22.05;14.68;;;22.10;99.90;;;22.55;80.68;101493.72;5052373;28;20045;-63
2022/07/31 04:59:58;;;;;;;23.50;14.88;;;22.10;99.90;;;22.53;80.65;101482.97;5068926;28;20072;-63
2022/07/31 05:02:34;;;;;;;23.95;14.82;;;22.10;99.90;;;21.48;80.53;101314.19;5051730;28;20144;-63
2022/07/31 05:05:03;;;;;;;21.13;13.50;;;22.10;99.90;;;22.55;80.86;101480.25;5052224;28;20044;-63
2022/07/31 05:07:38;;;;;;;24.30;14.48;;;22.00;99.90;;;22.53;81.05;101479.44;5085641;28;20037;-63
2022/07/31 05:12:57;;;;;;;28.92;15.77;;;22.10;99.90;;;22.39;81.36;101459.34;5051808;28;20045;-63
2022/07/31 05:15:25;;;;;;;28.63;15.25;;;22.10;99.90;;;22.58;81.53;101482.81;5052320;28;20044;-63
2022/07/31 05:17:56;;;;;;;28.98;15.10;;;22.10;99.90;;;22.57;81.55;101481.09;5052074;28;20432;-63
2022/07/31 05:20:53;;;;;;;27.13;16.17;;;22.10;99.90;;;22.61;81.77;101488.09;5052894;28;20542;-63
2022/07/31 05:23:37;;;;;;;28.98;16.15;;;22.10;99.90;;;22.61;81.81;101488.09;5053371;28;20064;-63
2022/07/31 05:26:16;;;;;;;31.73;15.15;;;22.10;99.90;;;22.58;81.78;101488.22;5052042;28;20048;-63
2022/07/31 05:28:45;;;;;;;26.55;14.50;;;22.20;99.90;;;22.67;82.08;101493.19;5053160;28;20091;-63
2022/07/31 05:31:14;;;;;;;31.88;15.20;;;22.20;99.90;;;22.57;81.89;101476.56;5068633;28;20045;-63
2022/07/31 05:33:44;;;;;;;27.38;15.82;;;22.20;99.90;;;22.63;82.06;101487.06;5052046;28;20037;-63
2022/07/31 05:36:12;;;;;;;25.05;15.02;;;22.20;99.90;;;22.55;82.35;101478.41;5053171;28;20067;-63
2022/07/31 05:38:42;;;;;;;27.63;15.63;;;22.20;99.90;;;22.65;82.51;101487.03;5051784;28;20045;-63
2022/07/31 05:41:25;;;;;;;26.05;15.02;;;22.20;99.90;;;22.66;82.69;101476.16;5053151;28;20041;-63
2022/07/31 05:44:00;;;;;;;27.95;16.02;;;22.20;99.90;;;22.46;82.67;101441.06;5053359;28;20540;-63
2022/07/31 05:46:38;;;;;;;25.38;15.90;;;22.20;99.90;;;22.62;82.94;101476.34;5052082;28;20669;-64
2022/07/31 05:49:09;;;;;;;23.85;14.88;;;22.10;99.90;;;22.56;83.27;101474.78;5051758;28;20383;-63
2022/07/31 05:51:37;;;;;;;35.00;15.90;;;22.10;99.90;;;22.56;83.46;101477.47;5051483;28;20045;-63
2022/07/31 05:54:06;;;;;;;29.75;17.20;;;22.10;99.90;;;22.36;83.86;101447.81;5051450;28;20059;-64
2022/07/31 05:56:53;;;;;;;25.80;15.30;;;22.10;99.90;;;22.45;84.06;101456.34;5052822;28;20132;-63
2022/07/31 05:59:31;;;;;;;35.28;17.35;;;22.10;99.90;;;22.54;84.11;101468.56;5067998;28;20056;-64
2022/07/31 06:01:59;;;;;;;25.50;15.18;;;22.10;99.90;;;22.67;84.11;101477.03;5052615;28;20068;-64
2022/07/31 06:04:31;;;;;;;25.02;17.05;;;22.20;99.90;;;22.69;83.88;101481.41;5051808;28;20422;-64
2022/07/31 06:06:59;;;;;;;31.23;16.80;;;22.30;99.90;;;22.67;84.18;101466.22;5051531;28;20060;-64
2022/07/31 06:09:28;;;;;;;28.42;18.25;;;22.20;99.90;;;22.72;84.15;101484.00;5051493;28;20095;-64
2022/07/31 06:11:58;;;;;;;30.92;17.60;;;22.20;99.90;;;22.72;84.13;101475.91;5068230;28;20079;-63
2022/07/31 06:14:27;;;;;;;29.90;19.02;;;22.20;99.90;;;22.70;84.23;101476.91;5051547;28;20116;-64
2022/07/31 06:17:16;;;;;;;30.42;18.25;;;22.20;99.90;;;22.59;84.21;101465.72;5051570;28;20041;-63
2022/07/31 06:19:46;;;;;;;30.25;17.63;;;22.20;99.90;;;22.66;84.21;101469.88;5068156;28;20115;-64
2022/07/31 06:22:16;;;;;;;31.30;18.23;;;22.20;99.90;;;22.75;84.25;101483.84;5051395;28;20075;-63
2022/07/31 06:24:44;;;;;;;27.20;17.63;;;22.30;99.90;;;22.80;84.04;101483.66;5051443;28;20053;-64
2022/07/31 06:27:13;;;;;;;27.05;17.20;;;22.30;99.90;;;22.75;83.85;101477.56;5051375;28;20041;-63
2022/07/31 06:30:01;;;;;;;28.60;17.52;;;22.30;99.90;;;22.74;84.09;101486.59;5051285;28;20044;-63
2022/07/31 06:32:30;;;;;;;33.03;18.88;;;22.30;99.90;;;22.69;84.40;101478.72;5051293;28;20053;-63
2022/07/31 06:35:01;;;;;;;28.60;17.95;;;22.30;99.90;;;22.76;84.43;101482.03;5051274;28;20051;-63
2022/07/31 06:37:32;;;;;;;25.00;17.00;;;22.30;99.90;;;22.73;84.32;101482.16;5070686;28;20422;-63
2022/07/31 06:40:01;;;;;;;29.85;18.15;;;22.30;99.90;;;22.66;84.62;101484.25;5071487;28;20056;-63
2022/07/31 06:42:48;;;;;;;26.35;18.10;;;22.20;99.90;;;22.72;84.95;101486.69;5056268;28;20056;-63
2022/07/31 06:45:41;;;;;;;29.63;18.40;;;22.20;99.90;;;22.63;84.91;101484.38;5055668;28;20163;-63
2022/07/31 06:48:39;;;;;;;36.38;19.05;;;22.20;99.90;;;22.70;84.98;101487.69;5055362;28;20048;-63
2022/07/31 06:51:14;;;;;;;32.47;18.88;;;22.20;99.90;;;22.73;85.15;101487.53;5054803;28;20041;-63
2022/07/31 06:53:58;;;;;;;36.90;18.92;;;22.20;99.90;;;22.69;85.13;101485.91;5071425;28;20140;-64
2022/07/31 06:56:27;;;;;;;28.40;17.83;;;22.20;99.90;;;22.54;85.25;101460.47;5088119;28;20048;-63
2022/07/31 06:58:56;;;;;;;38.13;19.70;;;22.20;99.90;;;22.67;85.78;101493.19;5055881;28;20509;-63
2022/07/31 07:01:24;;;;;;;32.78;19.27;;;22.20;99.90;;;22.69;85.60;101485.91;5054286;28;20110;-63
2022/07/31 07:03:53;;;;;;;36.45;18.65;;;22.20;99.90;;;22.65;86.04;101485.19;5054192;28;20415;-63
2022/07/31 07:06:24;;;;;;;31.60;18.92;;;22.20;99.90;;;22.39;86.25;101475.53;5087803;28;20045;-63
2022/07/31 07:08:53;;;;;;;28.73;17.92;;;22.20;99.90;;;22.36;86.25;101437.91;5055775;28;20041;-63
2022/07/31 07:11:22;;;;;;;28.05;17.52;;;22.20;99.90;;;22.68;86.29;101485.06;5053997;28;20044;-63
2022/07/31 07:13:50;;;;;;;27.50;16.40;;;22.20;99.90;;;22.73;85.95;101484.84;5054101;28;20083;-63
2022/07/31 07:16:20;;;;;;;26.40;17.30;;;22.30;99.90;;;22.73;85.88;101474.94;5055323;28;20068;-63
2022/07/31 07:18:48;;;;;;;34.00;17.65;;;22.30;99.90;;;22.76;86.01;101482.03;5053679;28;20045;-63
2022/07/31 07:21:17;;;;;;;25.48;17.02;;;22.30;99.90;;;22.72;86.25;101477.72;5054154;28;20041;-63
2022/07/31 07:23:47;;;;;;;27.77;16.08;;;22.30;99.90;;;22.75;86.50;101474.84;5070379;28;20095;-63
2022/07/31 07:26:28;;;;;;;28.70;15.45;;;22.30;99.90;;;22.83;86.44;101475.41;5070671;28;20053;-63
2022/07/31 07:28:56;;;;;;;26.35;15.65;;;22.30;99.90;;;22.80;86.53;101471.00;5053836;28;20049;-63
2022/07/31 07:31:25;;;;;;;26.63;15.70;;;22.30;99.90;;;22.77;86.76;101479.25;5053480;28;20040;-63
2022/07/31 07:33:54;;;;;;;29.85;16.52;;;22.30;99.90;;;22.78;86.38;101466.66;5053928;28;20469;-63
2022/07/31 07:36:24;;;;;;;;;;;22.30;99.90;;;22.80;86.67;101472.84;5054429;28;20570;-63
2022/07/31 07:39:04;;;;;;;26.20;14.77;;;22.40;99.90;;;22.78;86.69;101481.03;5070287;28;19921;-63
2022/07/31 07:41:34;;;;;;;25.85;15.80;;;22.30;99.90;;;22.88;86.49;101476.09;5053934;28;20434;-63
2022/07/31 07:44:02;;;;;;;24.60;14.98;;;22.40;99.90;;;22.79;86.26;101471.97;5053371;28;20502;-63
2022/07/31 07:46:31;;;;;;;25.13;14.60;;;22.30;99.90;;;22.78;86.47;101491.81;5053531;28;20102;-64
2022/07/31 07:49:04;;;;;;;26.15;15.63;;;22.30;99.90;;;22.76;86.50;101452.34;5052568;28;20053;-66
2022/07/31 07:51:37;;;;;;;26.45;13.98;;;22.30;99.90;;;22.68;86.81;101446.41;5053369;28;20052;-66
2022/07/31 07:54:32;;;;;;;27.27;14.23;;;22.30;99.90;;;22.89;86.90;101475.13;5054875;28;20080;-64
2022/07/31 07:57:21;;;;;;;23.10;13.93;;;22.40;99.90;;;22.70;86.52;101431.94;5054515;28;20059;-66
2022/07/31 08:00:08;;;;;;;25.95;15.30;;;22.40;99.90;;;22.85;86.78;101465.41;5054633;28;20384;-67
2022/07/31 08:02:58;;;;;;;21.60;14.02;;;22.40;99.90;;;22.83;87.01;101470.00;5053140;28;20157;-66
2022/07/31 08:05:47;;;;;;;24.15;14.75;;;22.40;99.90;;;22.61;87.46;101431.47;5054559;28;20094;-62
2022/07/31 08:08:15;;;;;;;24.15;14.68;;;22.30;99.90;;;22.39;87.71;101394.66;5053208;28;20052;-62
2022/07/31 08:10:51;;;;;;;25.73;15.15;;;22.30;99.90;;;22.66;87.92;101437.50;5054453;28;20048;-62
2022/07/31 08:13:27;;;;;;;24.30;14.10;;;22.30;99.90;;;22.85;88.09;101460.00;5053207;28;20570;-63
2022/07/31 08:16:14;;;;;;;27.13;16.33;;;22.40;99.90;;;22.57;87.87;101429.84;5054302;28;20052;-62
2022/07/31 08:18:50;;;;;;;28.35;15.77;;;22.40;99.90;;;22.76;88.22;101458.63;5053200;28;20049;-63
2022/07/31 08:21:19;;;;;;;23.35;14.60;;;22.30;99.90;;;22.73;88.17;101466.84;5052980;28;20055;-64
2022/07/31 08:23:47;;;;;;;23.73;14.88;;;22.30;99.90;;;22.74;88.11;101462.34;5069396;28;20095;-62
2022/07/31 08:26:18;;;;;;;29.05;16.92;;;22.30;99.90;;;22.80;88.17;101464.75;5052875;28;20049;-62
2022/07/31 08:28:48;;;;;;;29.27;16.58;;;22.30;99.90;;;22.70;88.01;101460.72;5068822;28;20072;-62
2022/07/31 08:31:22;;;;;;;22.65;16.65;;;22.30;99.90;;;22.67;88.31;101439.25;5069314;28;20056;-62
2022/07/31 08:34:26;;;;;;;32.58;18.27;;;22.30;99.90;;;22.72;87.99;101450.72;5031505;28;20041;-63
2022/07/31 08:37:03;;;;;;;26.77;19.33;;;22.30;99.90;;;22.62;88.00;101457.47;5046621;28;20045;-66
2022/07/31 08:39:51;;;;;;;30.30;20.23;;;22.20;99.90;;;22.64;88.34;101466.38;5052606;28;20098;-62
2022/07/31 08:42:21;;;;;;;30.80;20.33;;;22.20;99.90;;;22.66;88.61;101465.38;5053917;28;20037;-62
2022/07/31 08:44:50;;;;;;;31.92;21.33;;;22.20;99.90;;;22.62;88.82;101447.56;5053833;28;20045;-61
2022/07/31 08:47:25;;;;;;;36.60;24.40;;;22.20;99.90;;;22.65;88.60;101457.38;5053716;28;20044;-62
2022/07/31 08:49:56;;;;;;;32.03;25.02;;;22.20;99.90;;;22.72;88.72;101461.53;5086124;28;20049;-62
2022/07/31 08:52:27;;;;;;;41.63;26.67;;;22.30;99.90;;;22.66;88.70;101459.09;5053024;28;20102;-62
2022/07/31 08:55:08;;;;;;;37.28;26.95;;;22.30;99.90;;;22.65;88.96;101463.59;5052708;28;20407;-61
2022/07/31 08:57:38;;;;;;;40.28;29.58;;;22.20;99.90;;;22.70;88.62;101463.41;5069027;28;20049;-61
2022/07/31 09:00:11;;;;;;;39.22;28.80;;;22.20;99.90;;;22.77;88.64;101468.47;5052005;28;20053;-63
2022/07/31 09:02:41;;;;;;;42.75;27.77;;;22.30;99.90;;;22.75;88.41;101456.84;5053427;28;20463;-62
2022/07/31 09:05:16;;;;;;;38.53;26.77;;;22.30;99.90;;;22.33;87.87;101383.25;5053416;28;20048;-61
2022/07/31 09:07:44;;;;;;;37.90;27.35;;;22.30;99.90;;;22.77;87.66;101452.28;5051987;28;20083;-61
2022/07/31 09:10:24;;;;;;;33.35;25.58;;;22.40;99.90;;;22.80;87.35;101462.91;5051751;28;20048;-62
2022/07/31 09:12:55;;;;;;;35.40;25.67;;;22.30;99.90;;;22.77;86.72;101451.38;5052276;28;20048;-63
2022/07/31 09:15:28;;;;;;;36.00;24.20;;;22.30;99.90;;;22.42;86.76;101407.09;5052319;28;20491;-61
2022/07/31 09:18:01;;;;;;;32.08;24.60;;;22.30;99.90;;;22.80;86.71;101471.00;5051803;28;20049;-59
2022/07/31 09:20:32;;;;;;;33.40;25.73;;;22.30;99.90;;;22.73;86.90;101466.84;5051941;28;20045;-61
2022/07/31 09:23:09;;;;;;;32.47;24.90;;;22.30;99.90;;;22.71;87.79;101449.84;5068931;28;20057;-60
2022/07/31 09:25:52;;;;;;;35.40;25.23;;;22.30;99.90;;;22.77;88.11;101451.38;5051901;28;20037;-59
2022/07/31 09:28:33;;;;;;;26.25;22.15;;;22.30;99.90;;;22.72;88.06;101459.72;5068597;28;20063;-60
2022/07/31 09:31:03;;;;;;;31.10;23.40;;;22.30;99.90;;;22.69;88.15;101462.53;5051835;28;20056;-60
2022/07/31 09:34:10;;;;;;;29.00;22.63;;;22.30;99.90;;;22.75;88.21;101466.75;5050520;28;20045;-60
2022/07/31 09:36:39;;;;;;;28.00;22.67;;;22.30;99.90;;;22.68;88.29;101458.09;5050449;28;20073;-59
2022/07/31 09:39:28;;;;;;;25.30;21.52;;;22.20;99.90;;;22.71;87.98;101457.06;5024104;28;20491;-59
2022/07/31 09:42:39;;;;;;;31.88;19.98;;;22.20;99.90;;;22.60;88.48;101459.38;5050600;28;20069;-59
2022/07/31 09:45:24;;;;;;;27.00;20.65;;;22.10;99.90;;;22.57;88.50;101452.28;5068489;28;20048;-65
2022/07/31 09:48:06;;;;;;;25.30;20.20;;;22.10;99.90;;;22.45;88.91;101426.69;5051857;28;20053;-60
2022/07/31 09:50:35;;;;;;;26.15;19.15;;;22.20;99.90;;;22.75;88.51;101458.66;5052920;28;20044;-60
2022/07/31 09:53:05;;;;;;;23.98;18.48;;;22.30;99.90;;;22.72;88.22;101450.72;5052717;28;20123;-59
2022/07/31 09:55:35;;;;;;;25.75;18.05;;;22.30;99.90;;;22.85;88.28;101460.91;5068417;28;20053;-59
2022/07/31 09:58:04;;;;;;;26.58;18.48;;;22.40;99.90;;;22.74;88.31;101451.53;5052851;28;20044;-59
2022/07/31 10:00:41;;;;;;;23.73;15.90;;;22.30;99.90;;;22.70;88.30;101461.59;5051522;28;20056;-61
2022/07/31 10:03:13;;;;;;;20.40;13.70;;;22.20;99.90;;;22.55;88.64;101458.66;5053051;28;20406;-61
2022/07/31 10:05:43;;;;;;;24.10;13.60;;;22.10;99.90;;;22.42;88.67;101443.03;5068006;28;20044;-61
2022/07/31 10:08:16;;;;;;;23.77;14.35;;;22.10;99.90;;;22.64;88.50;101478.06;5051476;28;20132;-61
2022/07/31 10:11:10;;;;;;;24.50;12.95;;;22.10;99.90;;;22.57;88.61;101437.94;5052809;28;20175;-61
2022/07/31 10:13:56;;;;;;;23.20;11.88;;;22.20;99.90;;;22.75;88.14;101469.47;5055248;28;20072;-60
2022/07/31 10:16:29;;;;;;;18.17;10.07;;;22.20;99.90;;;22.68;88.29;101441.91;5088928;28;20132;-61
2022/07/31 10:19:32;;;;;;;19.90;9.95;;;22.20;99.90;;;22.67;88.59;101460.84;5051254;28;20057;-59
2022/07/31 10:22:23;;;;;;;21.23;10.98;;;22.20;99.90;;;22.77;88.52;101464.88;5044590;28;20155;-60
2022/07/31 10:24:55;;;;;;;19.35;9.93;;;22.30;99.90;;;22.76;88.29;101434.34;5054878;28;20045;-59
2022/07/31 10:27:23;;;;;;;30.05;8.68;;;22.40;99.90;;;22.65;88.30;101441.19;5055098;28;20136;-61
2022/07/31 10:30:09;;;;;;;17.48;8.00;;;22.30;99.90;;;22.77;88.58;101456.78;5054829;28;20061;-60
2022/07/31 10:32:44;;;;;;;17.83;8.50;;;22.30;99.90;;;22.83;88.76;101473.59;5055211;28;20041;-60
2022/07/31 10:35:28;;;;;;;11.93;7.20;;;22.40;99.90;;;22.86;88.70;101449.13;5056275;28;20041;-61